Linden Pride — H3VP — position and weather

sailwx.info

Track history (hours):
 
Tides and Currents Weather Stations Pressure Air Temp Water Temp Dewpoint Dewpoint Depression Visibility Wind Speed Wind Dir Waves Ship Positions

Linden Pride

Last reported at 2016-Apr-24 11:33 UTC. Time now 2016-Apr-29 08:10 UTC.
Position N 22°10' E 113°47'.

Length 230 m; beam 36.6 m.

Type: Ship. MMSI: 356677000.

Date/timePositionNaut miles runAvg speedWind from/ knotsBaromVisibWave heightAir tempDewpointWater temp
2016-Apr-24 11:33N 22°10' E 113°47'1111.4
2016-Apr-24 10:33N 22°21' E 113°47'2014.3
2016-Apr-24 09:09N 22°40' E 113°41'811.4
2016-Apr-24 08:26N 22°48' E 113°37'910.3
2016-Apr-24 07:33N 22°56' E 113°33'1 0.3
2016-Apr-24 03:28N 22°57' E 113°33'0 0.0
2016-Apr-23 23:16N 22°57' E 113°33'0 0.0
2016-Apr-23 22:28N 22°57' E 113°33'0 0.0
2016-Apr-23 21:16N 22°57' E 113°33'0 0.0
2016-Apr-23 20:28N 22°57' E 113°33'0 0.0
2016-Apr-23 19:16N 22°57' E 113°33'0 0.0
2016-Apr-23 18:28N 22°57' E 113°33'0 0.0
2016-Apr-23 16:28N 22°57' E 113°33'0 0.0
2016-Apr-23 15:28N 22°57' E 113°33'0 0.0
2016-Apr-23 14:16N 22°57' E 113°33'0 0.0
2016-Apr-23 13:16N 22°57' E 113°33'0 0.0
2016-Apr-23 12:28N 22°57' E 113°33'0 0.0
2016-Apr-23 11:33N 22°57' E 113°33'2 2.4
2016-Apr-23 10:33N 22°55' E 113°34'10 8.6
2016-Apr-23 09:20N 22°45' E 113°39'4 0.4
2016-Apr-22 21:24N 22°42' E 113°42'  
Track history (hours):
 
Tides and Currents Weather Stations Pressure Air Temp Water Temp Dewpoint Dewpoint Depression Visibility Wind Speed Wind Dir Waves Ship Positions

Linden Pride

Last reported at 2016-Apr-24 11:33 UTC. Time now 2016-Apr-29 08:10 UTC.
Position N 22°10' E 113°47'.

Length 230 m; beam 36.6 m.

Type: Ship. MMSI: 356677000.

Date/timePositionNaut miles runAvg speedWind from/ knotsBaromVisibWave heightAir tempDewpointWater temp
2016-Apr-24 11:33N 22°10' E 113°47'1111.4
2016-Apr-24 10:33N 22°21' E 113°47'2014.3
2016-Apr-24 09:09N 22°40' E 113°41'811.4
2016-Apr-24 08:26N 22°48' E 113°37'910.3
2016-Apr-24 07:33N 22°56' E 113°33'1 0.3
2016-Apr-24 03:28N 22°57' E 113°33'0 0.0
2016-Apr-23 23:16N 22°57' E 113°33'0 0.0
2016-Apr-23 22:28N 22°57' E 113°33'0 0.0
2016-Apr-23 21:16N 22°57' E 113°33'0 0.0
2016-Apr-23 20:28N 22°57' E 113°33'0 0.0
2016-Apr-23 19:16N 22°57' E 113°33'0 0.0
2016-Apr-23 18:28N 22°57' E 113°33'0 0.0
2016-Apr-23 16:28N 22°57' E 113°33'0 0.0
2016-Apr-23 15:28N 22°57' E 113°33'0 0.0
2016-Apr-23 14:16N 22°57' E 113°33'0 0.0
2016-Apr-23 13:16N 22°57' E 113°33'0 0.0
2016-Apr-23 12:28N 22°57' E 113°33'0 0.0
2016-Apr-23 11:33N 22°57' E 113°33'2 2.4
2016-Apr-23 10:33N 22°55' E 113°34'10 8.6
2016-Apr-23 09:20N 22°45' E 113°39'4 0.4
2016-Apr-22 21:24N 22°42' E 113°42'  

Dump ship's entire track history